Weather reports worldwide

Advertisment
Mende, France (7554): temperature & dewpoint: 18.06.2018 11:00:00 - 24.06.2018 11:00:00 (CEST)Mende, France (7554): temperature 5cm: 18.06.2018 11:00:00 - 24.06.2018 11:00:00 (CEST)Mende, France (7554): temperature -20cm & temperature -100cm: 18.06.2018 11:00:00 - 24.06.2018 11:00:00 (CEST)Mende, France (7554): wind speed & gusts: 18.06.2018 11:00:00 - 24.06.2018 11:00:00 (CEST)Mende, France (7554): wind direction: 18.06.2018 11:00:00 - 24.06.2018 11:00:00 (CEST)Mende, France (7554): visibility: 18.06.2018 11:00:00 - 24.06.2018 11:00:00 (CEST)Mende, France (7554): sunshine duration: 18.06.2018 11:00:00 - 24.06.2018 11:00:00 (CEST)Mende, France (7554): precipitation: 18.06.2018 11:00:00 - 24.06.2018 11:00:00 (CEST)
Date & Time tt [°C] td [°C] tt 5cm [°C] tt -20cm [°C] tt -100cm [°C] ff [km/h] ff [kn] fx [km/h] fx [kn] dd vv [km] sd [min] rr [mm]
24.06.2018 11:00:00 - - - - - - - - - - - - -
24.06.2018 10:00:00 16,4 8,4 15,5 19,7 15,3 5 3 11 6 SSE 20 52 0,0
24.06.2018 09:00:00 12,8 7,7 13,9 19,9 15,4 6 3 10 6 N 20 8 0,0
24.06.2018 08:00:00 12,7 6,3 9,1 20,1 15,4 3 1 10 5 ESE 20 56 0,0
24.06.2018 07:00:00 9,6 5,4 7,2 20,2 15,4 6 4 16 9 E 20 14 0,0
24.06.2018 06:00:00 9,5 4,9 5,9 20,3 15,4 6 3 11 6 E 20 0 0,0
24.06.2018 05:00:00 10,2 5,0 6,2 20,4 15,3 6 3 11 6 ENE 20 0 0,0
24.06.2018 04:00:00 10,7 4,6 6,7 20,5 15,4 6 3 10 6 NE 20 0 0,0
24.06.2018 03:00:00 11,5 4,9 9,4 20,5 15,3 6 3 19 10 E 20 0 0,0
24.06.2018 02:00:00 12,4 4,8 8,5 20,5 15,3 11 6 17 9 ENE 20 0 0,0
24.06.2018 01:00:00 12,9 4,8 10,0 20,5 15,3 10 5 17 9 ENE 20 0 0,0
24.06.2018 00:00:00 13,2 5,4 10,6 20,3 15,3 5 3 18 10 E 20 0 0,0
23.06.2018 23:00:00 14,2 5,5 11,9 20,1 15,3 9 5 35 19 ENE 20 0 0,0
23.06.2018 22:00:00 15,5 6,5 12,9 20,0 15,3 7 4 25 14 E 18 10 0,0
23.06.2018 21:00:00 17,4 6,9 16,5 19,7 15,3 11 6 27 14 NE 20 28 0,0
23.06.2018 20:00:00 19,8 3,9 25,6 19,5 15,3 15 8 31 17 NE 20 60 0,0
23.06.2018 19:00:00 21,0 3,2 27,2 19,3 15,3 17 9 31 17 NNE 20 60 0,0
23.06.2018 18:00:00 21,8 2,5 29,0 19,2 15,3 17 9 29 16 NNE 20 60 0,0
23.06.2018 17:00:00 21,9 2,0 31,0 19,0 15,3 14 8 31 17 ENE 20 60 0,0
23.06.2018 16:00:00 22,3 3,4 32,0 19,0 15,2 16 9 32 17 NE 20 60 0,0
23.06.2018 15:00:00 21,8 1,4 28,7 19,0 15,2 12 6 32 17 E 20 60 0,0
23.06.2018 14:00:00 21,2 1,4 27,6 19,1 15,2 14 7 36 19 ESE 20 60 0,0
23.06.2018 13:00:00 20,1 3,3 27,4 19,2 15,2 13 7 26 14 SE 20 60 0,0
23.06.2018 12:00:00 19,1 4,1 25,1 19,4 15,2 8 4 31 17 ESE 19 60 0,0
23.06.2018 11:00:00 17,0 2,9 21,7 19,5 15,2 16 9 37 20 NE 20 60 0,0
23.06.2018 10:00:00 15,1 2,9 16,3 19,7 15,2 19 11 39 21 NNE 20 60 0,0
23.06.2018 09:00:00 13,3 3,4 14,7 19,9 15,2 14 8 32 17 ENE 20 60 0,0
23.06.2018 08:00:00 11,7 3,5 8,5 20,1 15,2 6 4 38 21 E 20 60 0,0
23.06.2018 07:00:00 9,6 3,1 7,8 20,2 15,2 22 12 47 26 NE 20 14 0,0
23.06.2018 06:00:00 9,5 3,0 2,9 20,4 15,2 23 12 41 22 NE 20 0 0,0
23.06.2018 05:00:00 8,0 2,7 3,8 20,5 15,2 6 3 12 6 NE 20 0 0,0
23.06.2018 04:00:00 8,6 2,8 4,1 20,6 15,2 6 3 14 8 E 18 0 0,0
23.06.2018 03:00:00 9,4 3,4 6,0 20,7 15,1 6 3 23 12 E 20 0 0,0
23.06.2018 02:00:00 10,5 3,3 7,0 20,7 15,1 8 4 24 13 E 20 0 0,0
23.06.2018 01:00:00 10,9 3,7 8,3 20,7 15,1 7 4 41 22 NE 20 0 0,0
23.06.2018 00:00:00 11,9 4,6 10,3 20,6 15,1 17 9 45 25 NE 20 0 0,0
22.06.2018 23:00:00 12,5 4,2 10,7 20,5 15,1 18 10 35 19 NNE 20 0 0,0
22.06.2018 22:00:00 13,7 3,7 11,7 20,3 15,1 16 8 35 19 NE 20 10 0,0
22.06.2018 21:00:00 15,2 3,3 15,4 20,2 15,1 18 10 34 18 ENE 20 49 0,0
22.06.2018 20:00:00 17,4 3,3 22,3 20,0 15,1 9 5 33 18 ENE 20 60 0,0
22.06.2018 19:00:00 18,9 1,4 25,0 19,8 15,1 10 5 40 22 ENE 19 60 0,0
22.06.2018 18:00:00 18,7 -0,2 26,5 19,7 15,1 22 12 44 24 ENE 20 60 0,0
22.06.2018 17:00:00 19,4 1,8 26,6 19,6 15,1 23 12 48 26 NE 20 60 0,0
22.06.2018 16:00:00 19,5 3,6 26,4 19,6 15,1 19 11 47 26 NE 20 60 0,0
22.06.2018 15:00:00 19,4 3,5 26,9 19,5 15,0 19 11 44 24 NNE 20 60 0,0
22.06.2018 14:00:00 18,7 4,5 26,2 19,6 15,0 18 10 44 24 N 20 60 0,0
22.06.2018 13:00:00 18,4 4,2 23,4 19,6 15,0 17 9 50 27 NE 20 60 0,0
22.06.2018 12:00:00 16,9 4,2 22,1 19,8 15,0 18 10 39 21 N 20 60 0,0
22.06.2018 11:00:00 16,3 4,3 18,6 19,9 15,0 15 8 34 18 NE 20 60 0,0
22.06.2018 10:00:00 14,4 6,2 17,9 20,0 15,0 15 8 33 18 NNE 20 60 0,0
22.06.2018 09:00:00 13,8 7,8 17,2 20,1 15,0 15 8 34 19 NE 20 60 0,0
22.06.2018 08:00:00 13,8 9,0 14,1 20,2 15,0 6 3 31 17 NNE 20 23 0,0
22.06.2018 07:00:00 13,3 10,3 12,4 20,3 15,0 4 2 21 11 SE 20 0 0,0
22.06.2018 06:00:00 13,7 10,9 13,0 20,4 14,9 13 7 27 15 N 20 0 0,0
22.06.2018 05:00:00 14,5 11,3 13,5 20,5 15,0 14 8 39 21 NNE 20 0 0,0
22.06.2018 04:00:00 15,0 12,1 12,4 20,6 15,0 6 3 21 12 N 20 0 0,0
22.06.2018 03:00:00 16,0 12,7 13,7 20,6 14,9 10 5 24 13 NE 20 0 0,0
22.06.2018 02:00:00 16,4 13,1 14,8 20,6 14,9 11 6 20 11 N 20 0 0,0
22.06.2018 01:00:00 16,9 13,2 15,0 20,6 14,9 8 4 28 15 N 20 0 0,0
22.06.2018 00:00:00 18,2 12,6 16,7 20,5 14,9 14 8 34 19 NNE 20 0 0,0
21.06.2018 23:00:00 19,3 11,8 17,6 20,4 14,9 19 10 33 18 N 20 0 0,0
21.06.2018 22:00:00 20,6 13,1 18,1 20,3 14,9 7 4 19 10 NNE 20 0 0,0
21.06.2018 21:00:00 21,6 13,8 20,6 20,2 14,9 7 4 15 8 N 20 5 0,0
21.06.2018 20:00:00 23,4 15,7 21,9 20,0 14,9 5 3 21 11 NNE 20 16 0,0
21.06.2018 19:00:00 23,9 14,3 23,3 19,9 14,8 16 8 36 19 N 20 26 0,0
21.06.2018 18:00:00 24,5 15,7 24,8 19,7 14,8 8 4 28 15 N 20 8 0,0
21.06.2018 17:00:00 25,0 15,6 24,9 19,7 14,8 19 10 29 16 NNW 20 4 0,0
21.06.2018 16:00:00 26,5 14,9 27,5 19,6 14,8 10 6 25 14 W 20 38 0,0
21.06.2018 15:00:00 28,0 15,3 28,1 19,5 14,8 13 7 22 12 WSW 20 43 0,0
21.06.2018 14:00:00 26,8 14,2 28,1 19,6 14,8 11 6 27 15 WNW 20 37 0,0
21.06.2018 13:00:00 26,7 14,1 26,2 19,6 14,8 14 7 28 15 NW 20 50 0,0
21.06.2018 12:00:00 24,5 14,0 25,1 19,7 14,8 14 8 29 15 N 20 33 0,0
21.06.2018 11:00:00 24,7 14,8 27,9 19,8 14,8 12 6 26 14 NW 20 57 0,0
21.06.2018 10:00:00 22,4 16,0 24,9 19,9 14,8 4 2 8 5 WSW 20 60 0,0
21.06.2018 09:00:00 19,8 13,5 21,3 20,0 14,7 4 2 7 4 SSE 20 60 0,0
21.06.2018 08:00:00 17,5 13,6 14,6 20,1 14,8 5 3 14 7 E 20 60 0,0
21.06.2018 07:00:00 15,0 13,0 13,9 20,2 14,8 8 5 13 7 ESE 20 14 0,0
21.06.2018 06:00:00 15,0 12,1 13,5 20,2 14,8 6 3 12 6 ESE 20 0 0,0
21.06.2018 05:00:00 16,1 12,1 15,1 20,3 14,7 8 5 13 7 ESE 20 0 0,0
21.06.2018 04:00:00 17,1 14,4 16,1 20,4 14,7 8 4 10 6 ESE 20 0 0,0
21.06.2018 03:00:00 17,8 14,5 16,5 20,4 14,7 5 3 7 4 ESE 20 0 0,0
21.06.2018 02:00:00 18,3 15,5 14,5 20,3 14,7 3 2 6 4 SE 20 0 0,0
21.06.2018 01:00:00 19,0 14,9 15,9 20,3 14,7 2 1 8 5 WNW 20 0 0,0
21.06.2018 00:00:00 20,1 16,5 18,9 20,2 14,7 4 2 9 5 SE 20 0 0,0
20.06.2018 23:00:00 20,1 16,5 19,1 20,1 14,7 7 4 11 6 ENE 20 0 0,0
20.06.2018 22:00:00 20,9 16,3 19,5 20,0 14,7 0 0 5 3 N 20 7 0,0
20.06.2018 21:00:00 22,4 16,7 23,9 19,8 14,6 4 2 11 6 NE 20 18 0,0
20.06.2018 20:00:00 23,9 15,9 23,0 19,7 14,6 3 2 10 6 WNW 17 60 0,0
20.06.2018 19:00:00 22,6 17,1 17,1 19,5 14,6 6 3 23 12 W 20 36 1,8
20.06.2018 18:00:00 19,7 15,3 17,2 19,3 14,6 14 8 37 20 SW 20 0 0,8
20.06.2018 17:00:00 25,7 15,4 26,7 19,2 14,6 6 3 23 12 SW 20 7 0,0
20.06.2018 16:00:00 26,3 13,4 27,9 19,1 14,6 9 5 23 12 SW 20 26 0,0
20.06.2018 15:00:00 27,9 13,8 31,6 19,0 14,6 9 5 21 11 SSW 20 58 0,0
20.06.2018 14:00:00 26,9 11,0 34,5 19,0 14,6 11 6 23 12 S 20 60 0,0
20.06.2018 13:00:00 26,5 12,2 34,0 19,1 14,6 8 4 24 13 SW 20 60 0,0
20.06.2018 12:00:00 24,9 11,5 31,3 19,2 14,6 8 5 17 9 SSE 20 60 0,0
20.06.2018 11:00:00 23,4 13,6 29,5 19,3 14,6 7 4 13 7 SE 20 60 0,0
20.06.2018 10:00:00 22,2 14,3 23,5 19,5 14,6 3 2 12 6 ESE 20 60 0,0
20.06.2018 09:00:00 19,3 13,9 20,1 19,6 14,6 6 4 11 6 ESE 20 60 0,0
20.06.2018 08:00:00 16,4 13,7 12,7 19,7 14,5 4 2 13 7 E 20 60 0,0
20.06.2018 07:00:00 14,0 12,4 11,9 19,8 14,5 6 4 12 7 E 20 14 0,0
20.06.2018 06:00:00 13,9 12,5 11,3 19,9 14,5 6 3 12 6 E 20 0 0,0
20.06.2018 05:00:00 14,2 12,2 8,7 19,9 14,5 6 4 10 5 ENE 20 0 0,0
20.06.2018 04:00:00 14,5 12,7 8,9 20,0 14,6 5 3 9 5 NE 20 0 0,0
20.06.2018 03:00:00 15,1 13,0 10,4 19,9 14,6 2 1 10 5 NE 20 0 0,0
20.06.2018 02:00:00 16,2 13,1 11,1 19,9 14,5 5 3 9 5 E 20 0 0,0
20.06.2018 01:00:00 16,7 13,0 12,6 19,8 14,6 2 1 10 5 E 20 0 0,0
20.06.2018 00:00:00 17,3 12,4 14,0 19,6 14,5 5 3 14 8 E 20 0 0,0
19.06.2018 23:00:00 18,2 11,7 15,4 19,4 14,5 7 4 17 9 ENE 20 0 0,0
19.06.2018 22:00:00 19,3 11,3 17,6 19,2 14,5 10 6 22 12 E 20 10 0,0
19.06.2018 21:00:00 21,2 12,1 21,2 18,9 14,5 12 7 21 12 NE 17 47 0,0
19.06.2018 20:00:00 23,5 12,2 28,9 18,7 14,5 14 7 25 13 NE 20 60 0,0
19.06.2018 19:00:00 25,3 12,8 30,6 18,4 14,5 13 7 27 15 NNE 20 60 0,0
19.06.2018 18:00:00 25,5 12,3 27,7 18,2 14,5 8 4 16 8 E 20 53 0,0
19.06.2018 17:00:00 26,1 13,9 29,0 18,1 14,5 8 5 22 12 SE 20 55 0,0
19.06.2018 16:00:00 25,5 14,0 32,1 18,0 14,5 5 3 19 10 ENE 20 60 0,0
19.06.2018 15:00:00 24,8 12,4 33,1 17,9 14,4 10 5 19 11 ESE 20 60 0,0
19.06.2018 14:00:00 23,2 11,9 31,6 18,0 14,5 11 6 35 19 E 20 60 0,0
19.06.2018 13:00:00 21,9 11,0 28,9 18,0 14,5 13 7 28 15 E 20 60 0,0
19.06.2018 12:00:00 21,3 12,2 28,3 18,1 14,4 12 6 24 13 SSE 20 60 0,0
19.06.2018 11:00:00 19,4 10,7 24,7 18,2 14,5 11 6 31 17 ENE 20 60 0,0
19.06.2018 10:00:00 18,1 10,9 19,7 18,3 14,5 6 4 36 19 SE 20 60 0,0
19.06.2018 09:00:00 16,1 9,7 18,4 18,4 14,4 21 11 36 19 NE 20 60 0,0
19.06.2018 08:00:00 15,7 9,6 10,5 18,6 14,4 0 0 14 8 N 20 60 0,0
19.06.2018 07:00:00 12,7 9,3 10,3 18,7 14,4 2 1 27 14 NE 20 14 0,0
19.06.2018 06:00:00 13,2 9,4 10,9 18,7 14,4 14 7 51 28 NE 20 0 0,0
19.06.2018 05:00:00 13,0 9,1 10,3 18,8 14,4 9 5 27 15 NE 20 0 0,0
19.06.2018 04:00:00 13,6 9,4 12,1 18,8 14,4 11 6 37 20 NE 20 0 0,0
19.06.2018 03:00:00 13,6 9,8 11,0 18,8 14,4 10 6 26 14 N 20 0 0,0
19.06.2018 02:00:00 13,4 9,8 11,4 18,8 14,4 8 4 26 14 NNE 20 0 0,0
19.06.2018 01:00:00 14,4 9,4 12,5 18,8 14,4 11 6 33 18 ENE 20 0 0,0
19.06.2018 00:00:00 14,4 9,8 12,3 18,7 14,4 5 3 25 14 E 20 0 0,0
18.06.2018 23:00:00 14,8 10,0 13,0 18,5 14,4 2 1 12 6 WNW 20 0 0,0
18.06.2018 22:00:00 15,4 10,8 13,1 18,3 14,4 9 5 20 11 NNE 20 8 0,0
18.06.2018 21:00:00 16,6 10,2 17,0 18,1 14,4 7 4 25 13 NNE 20 47 0,0
18.06.2018 20:00:00 18,3 11,4 22,4 17,9 14,4 11 6 31 17 NNE 20 58 0,0
18.06.2018 19:00:00 18,8 11,1 19,7 17,7 14,4 18 10 34 18 N 20 37 0,0
18.06.2018 18:00:00 19,2 11,2 21,3 17,6 14,4 10 5 40 22 N 20 31 0,0
18.06.2018 17:00:00 20,4 12,6 21,5 17,4 14,3 16 8 41 22 N 20 50 0,0
18.06.2018 16:00:00 20,0 11,7 25,9 17,3 14,4 21 11 35 19 N 20 60 0,0
18.06.2018 15:00:00 19,7 11,5 26,5 17,3 14,4 18 10 44 24 N 20 60 0,0
18.06.2018 14:00:00 18,2 11,0 23,6 17,3 14,4 26 14 42 23 N 20 58 0,0
18.06.2018 13:00:00 17,8 10,7 24,8 17,4 14,4 19 11 33 18 N 20 53 0,0
18.06.2018 12:00:00 17,2 10,8 22,3 17,5 14,4 20 11 40 22 N 20 60 0,0
18.06.2018 11:00:00 15,3 9,9 18,4 17,5 14,3 19 10 34 18 N 20 31 0,0

tt = temperature
td = dewpoint
tt 5cm = temperature 5cm
tt -20cm = temperature -20cm
tt -100cm = temperature -100cm
ff = wind speed
fx = gusts
dd = wind direction
vv = visibility
sd = sunshine duration
rr = precipitation

Next stations